Portada
METAR-TAF:

METAR-TAF

Aeropuertos :

Lyon, Francia

latitud: 45-43N, longitud: 004-57E, altitud: 200 m

Observación

El informe se hizo hace 18 minutos, a las 03:00 UTC
Viento 2 kt del sureste
Temperatura 16°C
Humedad 77%
Presión 1016 hPa
Visibilidad 10 km o más
sin nubes por debajo de 1500 m y sin presencia de cumulonimbus.

METAR: LFLY 250300Z AUTO 13002KT CAVOK 16/12 Q1016 NOSIG

Hora: 05:18 (03:18 UTC)

Pronóstico

El informe se hizo hace 4 horas y 18 minutos, a las 23:00 UTC
Pronóstico válido del 25 a las 00 UTC al 25 a las 24 UTC
Viento 6 kt del sur
Visibilidad 10 km o más
sin nubes por debajo de 1500 m y sin presencia de cumulonimbus.
Evolucionando progresivamente
del 25 a las 22 UTC al 25 a las 24 UTC
Viento 2 kt con dirección variable

TAF: LFLY 242300Z 2500/2524 18006KT CAVOK BECMG 2522/2524 VRB02KT

Observaciones y pronósticos meteorológicos de más de 4000 aeropuertos (mensajes METAR y TAF).

Los puntos amarillos y rojos representan las estaciones disponibles.

Ponga el ratón en el punto deseado para ver el nombre de la estación.

Haga clic para ver las observaciones y los pronósticos meteorológicos.

Para cambiar el mapa : haga clic en los botones verdes con una cruz de color negro para hacer un zoom, en el botón verde con un guión para alejar o en las flechas verdes para mapas adyacentes.


METAR-TAF: